New Orleans, Louisiana
Traffic Map
Current Weather Conditions
New Orleans, Louisiana
Overcast
Overcast
27°
Feels Like: 29°
Wind Chill: 27° Ceiling: 2100
Heat Index: 29° Visibility: 9mi
Dew Point: 24° Wind: 20mph
Humidity: 85% Direction: 140° (SE)
Pressure: 29.88in Gusts: 29mph
Raw Report DataKNEW 292353Z 14017G25KT 9SM FEW015 BKN021 OVC041 27/24 A2988 RMK AO2 PK WND 13026/2304 SLP112 T02670239 10300 20267 58008
Traffic Incident Summary
Active as of:
Severity:
Category:
InformationThere was an issue retrieving the traffic information for this location. Please try a different location or try again shortly.
Advertisements
Track Severe Weather on mobile